PGT28Y LTAU-LTFJ
Flight info
| Callsign | PGT28Y |
|---|---|
| Flight time | 1h 4m |
| Altitude | 38000 |
| Route | KISLA UA17 BELSU UL605 AVCES DCT NEGBU UT329 TOKER |
| Aircraft | A21N/M-SDE3FGHIRWY/LB1 |
Departure
| Time | 2026-04-28 21:35 |
|---|---|
| Airport | Kayseri Erkilet International Airport (LTAU) |
Arrival
| Time | 2026-04-28 22:39 |
|---|---|
| Airport | Istanbul Sabiha Gökçen International Airport (LTFJ) |
| Time | Latitude | Longitude | Altitude | Speed | Heading |
|---|---|---|---|---|---|
| 2026-04-28 21:08 | 38.76597 | 35.48203 | 3457 ft | 0 kts | 165° |
| 2026-04-28 21:28 | 38.76599 | 35.48202 | 3457 ft | 2 kts | 165° |
| 2026-04-28 21:28 | 38.76614 | 35.48197 | 3457 ft | 2 kts | 164° |
| 2026-04-28 21:28 | 38.76629 | 35.48196 | 3457 ft | 2 kts | 195° |
| 2026-04-28 21:29 | 38.76643 | 35.48204 | 3457 ft | 2 kts | 221° |
| 2026-04-28 21:29 | 38.76652 | 35.48219 | 3457 ft | 2 kts | 248° |
| 2026-04-28 21:29 | 38.76654 | 35.48228 | 3457 ft | 1 kts | 261° |
| 2026-04-28 21:29 | 38.76655 | 35.48233 | 3457 ft | 0 kts | 257° |
| 2026-04-28 21:30 | 38.76654 | 35.48233 | 3457 ft | 0 kts | 257° |
| 2026-04-28 21:32 | 38.76653 | 35.48224 | 3457 ft | 1 kts | 256° |
| 2026-04-28 21:32 | 38.76649 | 35.48202 | 3457 ft | 3 kts | 256° |
| 2026-04-28 21:33 | 38.76643 | 35.48175 | 3457 ft | 3 kts | 256° |
| 2026-04-28 21:33 | 38.76648 | 35.48133 | 3458 ft | 6 kts | 306° |
| 2026-04-28 21:33 | 38.76692 | 35.48107 | 3457 ft | 7 kts | 345° |
| 2026-04-28 21:33 | 38.76746 | 35.48103 | 3457 ft | 7 kts | 27° |
| 2026-04-28 21:34 | 38.76772 | 35.48148 | 3457 ft | 3 kts | 71° |
| 2026-04-28 21:34 | 38.76778 | 35.48174 | 3457 ft | 13 kts | 73° |
| 2026-04-28 21:34 | 38.76869 | 35.48643 | 3460 ft | 92 kts | 77° |
| 2026-04-28 21:34 | 38.77076 | 35.49743 | 3464 ft | 156 kts | 77° |
| 2026-04-28 21:35 | 38.77367 | 35.51260 | 3714 ft | 186 kts | 75° |
| 2026-04-28 21:35 | 38.77670 | 35.52830 | 4514 ft | 184 kts | 75° |
| 2026-04-28 21:35 | 38.77973 | 35.54403 | 5340 ft | 184 kts | 74° |
| 2026-04-28 21:35 | 38.78284 | 35.56013 | 5994 ft | 193 kts | 74° |
| 2026-04-28 21:36 | 38.78621 | 35.57719 | 6521 ft | 209 kts | 74° |
| 2026-04-28 21:36 | 38.78995 | 35.59606 | 7054 ft | 225 kts | 73° |
| 2026-04-28 21:36 | 38.79684 | 35.61413 | 7688 ft | 233 kts | 47° |
| 2026-04-28 21:36 | 38.81003 | 35.62592 | 8349 ft | 241 kts | 18° |
| 2026-04-28 21:37 | 38.82707 | 35.62791 | 8891 ft | 257 kts | 349° |
| 2026-04-28 21:37 | 38.84506 | 35.62214 | 9446 ft | 274 kts | 345° |
| 2026-04-28 21:37 | 38.86367 | 35.61603 | 10140 ft | 285 kts | 343° |
| 2026-04-28 21:37 | 38.88179 | 35.60509 | 10725 ft | 298 kts | 323° |
| 2026-04-28 21:38 | 38.89606 | 35.58487 | 11180 ft | 317 kts | 301° |
| 2026-04-28 21:38 | 38.90381 | 35.55765 | 11595 ft | 336 kts | 283° |
| 2026-04-28 21:38 | 38.90882 | 35.52767 | 12107 ft | 351 kts | 283° |
| 2026-04-28 21:38 | 38.91393 | 35.49724 | 13014 ft | 352 kts | 283° |
| 2026-04-28 21:39 | 38.91899 | 35.46733 | 14192 ft | 343 kts | 283° |
| 2026-04-28 21:39 | 38.92402 | 35.43795 | 15250 ft | 337 kts | 283° |
| 2026-04-28 21:39 | 38.92906 | 35.40868 | 16081 ft | 340 kts | 283° |
| 2026-04-28 21:39 | 38.93413 | 35.37927 | 16807 ft | 343 kts | 283° |
| 2026-04-28 21:40 | 38.93931 | 35.34926 | 17556 ft | 346 kts | 283° |
| 2026-04-28 21:40 | 38.94451 | 35.31911 | 18280 ft | 349 kts | 283° |
| 2026-04-28 21:40 | 38.94979 | 35.28846 | 18969 ft | 353 kts | 283° |
| 2026-04-28 21:40 | 38.95504 | 35.25797 | 19667 ft | 355 kts | 283° |
| 2026-04-28 21:41 | 38.96039 | 35.22682 | 20368 ft | 358 kts | 282° |
| 2026-04-28 21:41 | 38.96576 | 35.19551 | 21032 ft | 361 kts | 282° |
| 2026-04-28 21:41 | 38.97115 | 35.16407 | 21663 ft | 364 kts | 282° |
| 2026-04-28 21:41 | 38.97658 | 35.13228 | 22318 ft | 367 kts | 282° |
| 2026-04-28 21:42 | 38.98201 | 35.10046 | 22948 ft | 369 kts | 282° |
| 2026-04-28 21:42 | 38.98751 | 35.06817 | 23548 ft | 372 kts | 282° |
| 2026-04-28 21:42 | 38.99304 | 35.03566 | 24146 ft | 375 kts | 282° |
| 2026-04-28 21:42 | 38.99855 | 35.00317 | 24724 ft | 378 kts | 282° |
| 2026-04-28 21:43 | 39.00416 | 34.97010 | 25278 ft | 381 kts | 282° |
| 2026-04-28 21:43 | 39.00983 | 34.93659 | 25821 ft | 384 kts | 282° |
| 2026-04-28 21:43 | 39.01547 | 34.90315 | 26347 ft | 386 kts | 282° |
| 2026-04-28 21:43 | 39.02116 | 34.86941 | 26851 ft | 389 kts | 282° |
| 2026-04-28 21:44 | 39.02685 | 34.83557 | 27336 ft | 391 kts | 282° |
| 2026-04-28 21:44 | 39.03258 | 34.80144 | 27805 ft | 393 kts | 282° |
| 2026-04-28 21:44 | 39.03830 | 34.76737 | 28274 ft | 395 kts | 282° |
| 2026-04-28 21:44 | 39.04413 | 34.73246 | 28727 ft | 397 kts | 282° |
| 2026-04-28 21:45 | 39.04987 | 34.69801 | 29157 ft | 399 kts | 282° |
| 2026-04-28 21:45 | 39.05568 | 34.66315 | 29562 ft | 402 kts | 282° |
| 2026-04-28 21:45 | 39.06155 | 34.62778 | 29945 ft | 404 kts | 282° |
| 2026-04-28 21:45 | 39.06743 | 34.59237 | 30348 ft | 406 kts | 282° |
| 2026-04-28 21:46 | 39.07324 | 34.55728 | 30709 ft | 408 kts | 282° |
| 2026-04-28 21:46 | 39.07919 | 34.52129 | 31047 ft | 410 kts | 282° |
| 2026-04-28 21:46 | 39.08509 | 34.48552 | 31364 ft | 412 kts | 282° |
| 2026-04-28 21:46 | 39.09100 | 34.44960 | 31648 ft | 415 kts | 282° |
| 2026-04-28 21:47 | 39.09747 | 34.41324 | 31930 ft | 417 kts | 284° |
| 2026-04-28 21:47 | 39.10531 | 34.37752 | 32212 ft | 419 kts | 287° |
| 2026-04-28 21:47 | 39.11476 | 34.34182 | 32576 ft | 419 kts | 290° |
| 2026-04-28 21:47 | 39.12639 | 34.30764 | 32955 ft | 419 kts | 296° |
| 2026-04-28 21:48 | 39.14077 | 34.27541 | 33316 ft | 419 kts | 302° |
| 2026-04-28 21:48 | 39.15789 | 34.24526 | 33658 ft | 419 kts | 307° |
| 2026-04-28 21:48 | 39.17623 | 34.21637 | 33989 ft | 419 kts | 308° |
| 2026-04-28 21:48 | 39.19507 | 34.18732 | 34309 ft | 419 kts | 308° |
| 2026-04-28 21:49 | 39.21373 | 34.15860 | 34617 ft | 418 kts | 308° |
| 2026-04-28 21:49 | 39.23218 | 34.13015 | 34851 ft | 418 kts | 308° |
| 2026-04-28 21:49 | 39.25082 | 34.10137 | 35096 ft | 418 kts | 308° |
| 2026-04-28 21:49 | 39.26948 | 34.07247 | 35332 ft | 418 kts | 308° |
| 2026-04-28 21:50 | 39.28780 | 34.04406 | 35564 ft | 417 kts | 308° |
| 2026-04-28 21:50 | 39.30632 | 34.01529 | 35800 ft | 417 kts | 308° |
| 2026-04-28 21:50 | 39.32480 | 33.98658 | 36028 ft | 416 kts | 308° |
| 2026-04-28 21:50 | 39.34325 | 33.95796 | 36237 ft | 416 kts | 308° |
| 2026-04-28 21:51 | 39.36177 | 33.92935 | 36427 ft | 416 kts | 308° |
| 2026-04-28 21:51 | 39.38024 | 33.90081 | 36609 ft | 417 kts | 308° |
| 2026-04-28 21:51 | 39.39876 | 33.87217 | 36785 ft | 418 kts | 308° |
| 2026-04-28 21:51 | 39.41733 | 33.84338 | 36954 ft | 419 kts | 308° |
| 2026-04-28 21:52 | 39.43607 | 33.81430 | 37132 ft | 419 kts | 308° |
| 2026-04-28 21:52 | 39.45464 | 33.78545 | 37294 ft | 420 kts | 308° |
| 2026-04-28 21:52 | 39.47306 | 33.75638 | 37448 ft | 421 kts | 308° |
| 2026-04-28 21:52 | 39.49147 | 33.72671 | 37591 ft | 422 kts | 307° |
| 2026-04-28 21:53 | 39.50988 | 33.69698 | 37731 ft | 423 kts | 307° |
| 2026-04-28 21:53 | 39.52775 | 33.66728 | 37858 ft | 424 kts | 305° |
| 2026-04-28 21:53 | 39.54466 | 33.63605 | 37982 ft | 424 kts | 302° |
| 2026-04-28 21:53 | 39.56027 | 33.60361 | 38020 ft | 425 kts | 299° |
| 2026-04-28 21:54 | 39.58752 | 33.53581 | 38030 ft | 425 kts | 295° |
| 2026-04-28 21:54 | 39.61312 | 33.46723 | 38033 ft | 425 kts | 295° |
| 2026-04-28 21:55 | 39.63882 | 33.39816 | 38031 ft | 424 kts | 295° |
| 2026-04-28 21:55 | 39.66421 | 33.32982 | 38032 ft | 425 kts | 295° |
| 2026-04-28 21:56 | 39.68986 | 33.26067 | 38033 ft | 425 kts | 295° |
| 2026-04-28 21:56 | 39.71539 | 33.19167 | 38039 ft | 425 kts | 295° |
| 2026-04-28 21:57 | 39.74091 | 33.12255 | 38046 ft | 425 kts | 295° |
| 2026-04-28 21:57 | 39.76631 | 33.05362 | 38046 ft | 425 kts | 295° |
| 2026-04-28 21:58 | 39.79166 | 32.98463 | 38049 ft | 425 kts | 295° |
| 2026-04-28 21:58 | 39.81712 | 32.91518 | 38047 ft | 425 kts | 295° |
| 2026-04-28 21:59 | 39.84244 | 32.84593 | 38046 ft | 425 kts | 295° |
| 2026-04-28 22:00 | 39.88019 | 32.74240 | 38046 ft | 424 kts | 295° |
| 2026-04-28 22:00 | 39.90534 | 32.67323 | 38049 ft | 424 kts | 295° |
| 2026-04-28 22:01 | 39.93041 | 32.60408 | 38046 ft | 423 kts | 295° |
| 2026-04-28 22:01 | 39.95536 | 32.53508 | 38045 ft | 422 kts | 295° |
| 2026-04-28 22:02 | 39.98021 | 32.46622 | 38043 ft | 422 kts | 295° |
| 2026-04-28 22:02 | 40.00435 | 32.39650 | 38053 ft | 422 kts | 292° |
| 2026-04-28 22:03 | 40.02320 | 32.32421 | 38049 ft | 422 kts | 286° |
| 2026-04-28 22:03 | 40.03778 | 32.25046 | 38046 ft | 421 kts | 285° |
| 2026-04-28 22:04 | 40.05198 | 32.17693 | 38039 ft | 421 kts | 285° |
| 2026-04-28 22:04 | 40.06621 | 32.10295 | 38052 ft | 421 kts | 285° |
| 2026-04-28 22:05 | 40.08032 | 32.02935 | 38041 ft | 420 kts | 285° |
| 2026-04-28 22:05 | 40.09442 | 31.95558 | 38048 ft | 420 kts | 285° |
| 2026-04-28 22:06 | 40.10854 | 31.88142 | 38057 ft | 420 kts | 285° |
| 2026-04-28 22:06 | 40.12245 | 31.80810 | 38090 ft | 418 kts | 285° |
| 2026-04-28 22:07 | 40.13636 | 31.73446 | 38069 ft | 418 kts | 285° |
| 2026-04-28 22:07 | 40.15016 | 31.66121 | 38097 ft | 418 kts | 285° |
| 2026-04-28 22:08 | 40.16393 | 31.58780 | 38088 ft | 417 kts | 285° |
| 2026-04-28 22:08 | 40.17767 | 31.51426 | 38080 ft | 417 kts | 285° |
| 2026-04-28 22:09 | 40.19134 | 31.44077 | 37585 ft | 417 kts | 285° |
| 2026-04-28 22:09 | 40.19813 | 31.40410 | 36995 ft | 417 kts | 285° |
| 2026-04-28 22:09 | 40.20494 | 31.36727 | 36348 ft | 418 kts | 285° |
| 2026-04-28 22:09 | 40.21172 | 31.33058 | 35754 ft | 420 kts | 285° |
| 2026-04-28 22:10 | 40.21855 | 31.29354 | 35093 ft | 423 kts | 285° |
| 2026-04-28 22:10 | 40.22546 | 31.25607 | 34318 ft | 427 kts | 285° |
| 2026-04-28 22:10 | 40.23237 | 31.21858 | 33525 ft | 428 kts | 285° |
| 2026-04-28 22:10 | 40.23928 | 31.18096 | 32778 ft | 428 kts | 285° |
| 2026-04-28 22:11 | 40.24627 | 31.14285 | 32013 ft | 429 kts | 285° |
| 2026-04-28 22:11 | 40.25310 | 31.10550 | 31431 ft | 425 kts | 285° |
| 2026-04-28 22:11 | 40.25990 | 31.06815 | 30961 ft | 419 kts | 285° |
| 2026-04-28 22:11 | 40.26653 | 31.03170 | 30485 ft | 414 kts | 285° |
| 2026-04-28 22:12 | 40.27315 | 30.99521 | 30010 ft | 409 kts | 285° |
| 2026-04-28 22:12 | 40.27963 | 30.95945 | 29539 ft | 404 kts | 285° |
| 2026-04-28 22:12 | 40.28606 | 30.92400 | 29063 ft | 400 kts | 285° |
| 2026-04-28 22:12 | 40.29241 | 30.88876 | 28591 ft | 396 kts | 285° |
| 2026-04-28 22:13 | 40.29867 | 30.85405 | 28121 ft | 392 kts | 285° |
| 2026-04-28 22:13 | 40.30490 | 30.81944 | 27646 ft | 388 kts | 285° |
| 2026-04-28 22:13 | 40.31085 | 30.78561 | 27183 ft | 385 kts | 284° |
| 2026-04-28 22:13 | 40.31562 | 30.75118 | 26844 ft | 383 kts | 281° |
| 2026-04-28 22:14 | 40.31951 | 30.71663 | 26870 ft | 387 kts | 280° |
| 2026-04-28 22:14 | 40.32334 | 30.68170 | 26896 ft | 388 kts | 281° |
| 2026-04-28 22:14 | 40.32716 | 30.64670 | 26919 ft | 388 kts | 281° |
| 2026-04-28 22:14 | 40.33092 | 30.61214 | 26724 ft | 389 kts | 281° |
| 2026-04-28 22:15 | 40.33473 | 30.57709 | 26216 ft | 387 kts | 280° |
| 2026-04-28 22:15 | 40.33846 | 30.54259 | 25740 ft | 383 kts | 281° |
| 2026-04-28 22:15 | 40.34216 | 30.50832 | 25271 ft | 380 kts | 280° |
| 2026-04-28 22:15 | 40.34561 | 30.47404 | 24807 ft | 377 kts | 278° |
| 2026-04-28 22:16 | 40.34761 | 30.43995 | 24344 ft | 375 kts | 275° |
| 2026-04-28 22:16 | 40.34800 | 30.40627 | 23873 ft | 374 kts | 272° |
| 2026-04-28 22:16 | 40.34720 | 30.37255 | 23425 ft | 371 kts | 271° |
| 2026-04-28 22:16 | 40.34626 | 30.33890 | 22970 ft | 368 kts | 270° |
| 2026-04-28 22:17 | 40.34529 | 30.30564 | 22511 ft | 366 kts | 270° |
| 2026-04-28 22:17 | 40.34432 | 30.27236 | 22065 ft | 363 kts | 270° |
| 2026-04-28 22:17 | 40.34336 | 30.23958 | 21613 ft | 361 kts | 270° |
| 2026-04-28 22:17 | 40.34240 | 30.20696 | 21149 ft | 359 kts | 270° |
| 2026-04-28 22:18 | 40.34145 | 30.17454 | 20690 ft | 357 kts | 270° |
| 2026-04-28 22:18 | 40.34048 | 30.14206 | 20244 ft | 354 kts | 270° |
| 2026-04-28 22:18 | 40.33952 | 30.11032 | 19804 ft | 353 kts | 270° |
| 2026-04-28 22:18 | 40.33855 | 30.07850 | 19474 ft | 346 kts | 270° |
| 2026-04-28 22:19 | 40.33758 | 30.04769 | 19338 ft | 334 kts | 270° |
| 2026-04-28 22:19 | 40.33599 | 30.01766 | 19190 ft | 324 kts | 264° |
| 2026-04-28 22:19 | 40.33058 | 29.98957 | 19087 ft | 318 kts | 253° |
| 2026-04-28 22:19 | 40.32158 | 29.96285 | 19104 ft | 323 kts | 248° |
| 2026-04-28 22:20 | 40.31158 | 29.93642 | 18756 ft | 325 kts | 247° |
| 2026-04-28 22:20 | 40.30148 | 29.91016 | 18322 ft | 324 kts | 247° |
| 2026-04-28 22:20 | 40.29140 | 29.88390 | 17916 ft | 322 kts | 247° |
| 2026-04-28 22:20 | 40.28152 | 29.85806 | 17511 ft | 320 kts | 246° |
| 2026-04-28 22:21 | 40.27154 | 29.83191 | 17118 ft | 318 kts | 246° |
| 2026-04-28 22:21 | 40.26191 | 29.80604 | 16730 ft | 315 kts | 251° |
| 2026-04-28 22:21 | 40.25629 | 29.77894 | 16325 ft | 309 kts | 265° |
| 2026-04-28 22:21 | 40.25576 | 29.75136 | 15938 ft | 305 kts | 275° |
| 2026-04-28 22:22 | 40.25693 | 29.72366 | 15541 ft | 302 kts | 276° |
| 2026-04-28 22:22 | 40.25769 | 29.70795 | 15346 ft | 301 kts | 276° |
| 2026-04-28 22:22 | 40.25881 | 29.68420 | 15031 ft | 299 kts | 275° |
| 2026-04-28 22:22 | 40.25982 | 29.66183 | 14696 ft | 298 kts | 275° |
| 2026-04-28 22:23 | 40.26096 | 29.63491 | 14318 ft | 296 kts | 275° |
| 2026-04-28 22:23 | 40.26207 | 29.60835 | 13943 ft | 294 kts | 275° |
| 2026-04-28 22:23 | 40.26315 | 29.58190 | 13574 ft | 292 kts | 275° |
| 2026-04-28 22:23 | 40.26652 | 29.55598 | 13156 ft | 289 kts | 294° |
| 2026-04-28 22:24 | 40.27817 | 29.53502 | 12955 ft | 285 kts | 320° |
| 2026-04-28 22:24 | 40.29406 | 29.51948 | 12798 ft | 288 kts | 324° |
| 2026-04-28 22:24 | 40.31028 | 29.50403 | 12438 ft | 287 kts | 324° |
| 2026-04-28 22:24 | 40.32630 | 29.48867 | 12072 ft | 285 kts | 323° |
| 2026-04-28 22:25 | 40.34200 | 29.47353 | 11709 ft | 283 kts | 323° |
| 2026-04-28 22:25 | 40.35774 | 29.45831 | 11322 ft | 281 kts | 323° |
| 2026-04-28 22:25 | 40.37322 | 29.44279 | 11017 ft | 279 kts | 317° |
| 2026-04-28 22:25 | 40.38423 | 29.42217 | 10766 ft | 281 kts | 296° |
| 2026-04-28 22:26 | 40.39192 | 29.39852 | 10485 ft | 281 kts | 293° |
| 2026-04-28 22:26 | 40.39916 | 29.37490 | 10237 ft | 280 kts | 294° |
| 2026-04-28 22:26 | 40.40657 | 29.35141 | 9987 ft | 279 kts | 294° |
| 2026-04-28 22:26 | 40.41423 | 29.32784 | 9784 ft | 278 kts | 294° |
| 2026-04-28 22:27 | 40.42196 | 29.30460 | 9658 ft | 278 kts | 295° |
| 2026-04-28 22:27 | 40.42972 | 29.28157 | 9534 ft | 278 kts | 295° |
| 2026-04-28 22:27 | 40.43763 | 29.25825 | 9396 ft | 279 kts | 295° |
| 2026-04-28 22:27 | 40.44551 | 29.23513 | 9263 ft | 278 kts | 295° |
| 2026-04-28 22:28 | 40.45345 | 29.21193 | 9139 ft | 278 kts | 296° |
| 2026-04-28 22:28 | 40.46244 | 29.18972 | 8995 ft | 275 kts | 310° |
| 2026-04-28 22:28 | 40.47767 | 29.17551 | 8830 ft | 273 kts | 338° |
| 2026-04-28 22:28 | 40.49549 | 29.16690 | 8654 ft | 272 kts | 340° |
| 2026-04-28 22:29 | 40.51306 | 29.15824 | 8447 ft | 270 kts | 339° |
| 2026-04-28 22:29 | 40.53059 | 29.14918 | 8160 ft | 270 kts | 338° |
| 2026-04-28 22:29 | 40.54788 | 29.13991 | 7840 ft | 268 kts | 338° |
| 2026-04-28 22:29 | 40.56500 | 29.13051 | 7505 ft | 267 kts | 338° |
| 2026-04-28 22:30 | 40.58218 | 29.12097 | 7166 ft | 265 kts | 338° |
| 2026-04-28 22:30 | 40.59890 | 29.11161 | 6826 ft | 263 kts | 338° |
| 2026-04-28 22:30 | 40.61576 | 29.10213 | 6487 ft | 261 kts | 338° |
| 2026-04-28 22:30 | 40.63238 | 29.09276 | 6159 ft | 260 kts | 338° |
| 2026-04-28 22:31 | 40.64891 | 29.08343 | 5821 ft | 258 kts | 338° |
| 2026-04-28 22:31 | 40.66552 | 29.07404 | 5480 ft | 256 kts | 338° |
| 2026-04-28 22:31 | 40.68178 | 29.06482 | 5148 ft | 255 kts | 338° |
| 2026-04-28 22:31 | 40.69796 | 29.05566 | 4824 ft | 253 kts | 338° |
| 2026-04-28 22:32 | 40.71401 | 29.04658 | 4498 ft | 252 kts | 338° |
| 2026-04-28 22:32 | 40.72996 | 29.03755 | 4288 ft | 244 kts | 338° |
| 2026-04-28 22:32 | 40.74504 | 29.02898 | 4268 ft | 229 kts | 338° |
| 2026-04-28 22:32 | 40.75971 | 29.02259 | 4195 ft | 217 kts | 358° |
| 2026-04-28 22:33 | 40.77437 | 29.02688 | 4099 ft | 218 kts | 31° |
| 2026-04-28 22:33 | 40.78562 | 29.03976 | 3850 ft | 217 kts | 51° |
| 2026-04-28 22:33 | 40.79392 | 29.05655 | 3625 ft | 215 kts | 60° |
| 2026-04-28 22:33 | 40.80085 | 29.07362 | 3408 ft | 211 kts | 62° |
| 2026-04-28 22:34 | 40.80734 | 29.09080 | 3219 ft | 203 kts | 63° |
| 2026-04-28 22:34 | 40.81311 | 29.10653 | 3294 ft | 180 kts | 63° |
| 2026-04-28 22:34 | 40.81826 | 29.12071 | 3255 ft | 161 kts | 63° |
| 2026-04-28 22:34 | 40.82287 | 29.13338 | 3134 ft | 148 kts | 63° |
| 2026-04-28 22:35 | 40.82716 | 29.14518 | 2924 ft | 141 kts | 63° |
| 2026-04-28 22:35 | 40.83139 | 29.15678 | 2737 ft | 141 kts | 63° |
| 2026-04-28 22:35 | 40.83567 | 29.16848 | 2552 ft | 140 kts | 63° |
| 2026-04-28 22:35 | 40.83986 | 29.17995 | 2402 ft | 139 kts | 63° |
| 2026-04-28 22:36 | 40.84403 | 29.19134 | 2210 ft | 135 kts | 63° |
| 2026-04-28 22:36 | 40.84798 | 29.20213 | 2005 ft | 128 kts | 63° |
| 2026-04-28 22:36 | 40.85185 | 29.21270 | 1826 ft | 127 kts | 63° |
| 2026-04-28 22:36 | 40.85567 | 29.22312 | 1659 ft | 126 kts | 63° |
| 2026-04-28 22:37 | 40.85950 | 29.23356 | 1491 ft | 126 kts | 63° |
| 2026-04-28 22:37 | 40.86332 | 29.24399 | 1321 ft | 126 kts | 62° |
| 2026-04-28 22:37 | 40.86698 | 29.25441 | 1169 ft | 125 kts | 64° |
| 2026-04-28 22:37 | 40.87076 | 29.26483 | 1003 ft | 125 kts | 61° |
| 2026-04-28 22:38 | 40.87471 | 29.27507 | 872 ft | 125 kts | 62° |
| 2026-04-28 22:38 | 40.87839 | 29.28539 | 694 ft | 124 kts | 62° |
| 2026-04-28 22:38 | 40.88229 | 29.29561 | 505 ft | 124 kts | 61° |
| 2026-04-28 22:38 | 40.88603 | 29.30587 | 338 ft | 123 kts | 61° |
| 2026-04-28 22:39 | 40.88943 | 29.31496 | 322 ft | 97 kts | 63° |
| 2026-04-28 22:39 | 40.89160 | 29.32090 | 322 ft | 41 kts | 64° |
| 2026-04-28 22:39 | 40.89254 | 29.32301 | 321 ft | 15 kts | 46° |
| 2026-04-28 22:39 | 40.89318 | 29.32374 | 321 ft | 9 kts | 38° |
| 2026-04-28 22:40 | 40.89341 | 29.32398 | 321 ft | 0 kts | 34° |
| 2026-04-28 22:40 | 40.89358 | 29.32412 | 321 ft | 4 kts | 33° |
| 2026-04-28 22:40 | 40.89389 | 29.32440 | 321 ft | 6 kts | 33° |
| 2026-04-28 22:41 | 40.89434 | 29.32477 | 321 ft | 8 kts | 27° |
| 2026-04-28 22:41 | 40.89486 | 29.32469 | 321 ft | 8 kts | 301° |
| 2026-04-28 22:41 | 40.89495 | 29.32395 | 321 ft | 8 kts | 288° |
| 2026-04-28 22:41 | 40.89537 | 29.32351 | 321 ft | 8 kts | 343° |
| 2026-04-28 22:42 | 40.89605 | 29.32333 | 321 ft | 13 kts | 343° |
| 2026-04-28 22:42 | 40.89691 | 29.32280 | 321 ft | 13 kts | 333° |
| 2026-04-28 22:42 | 40.89771 | 29.32230 | 321 ft | 12 kts | 335° |
| 2026-04-28 22:42 | 40.89849 | 29.32183 | 321 ft | 12 kts | 335° |
| 2026-04-28 22:43 | 40.89923 | 29.32134 | 321 ft | 12 kts | 334° |
| 2026-04-28 22:43 | 40.89998 | 29.32087 | 321 ft | 11 kts | 334° |
| 2026-04-28 22:43 | 40.90071 | 29.32057 | 321 ft | 11 kts | 11° |
| 2026-04-28 22:43 | 40.90122 | 29.32131 | 321 ft | 11 kts | 65° |
| 2026-04-28 22:44 | 40.90156 | 29.32227 | 321 ft | 11 kts | 64° |
| 2026-04-28 22:44 | 40.90191 | 29.32324 | 321 ft | 11 kts | 64° |
| 2026-04-28 22:44 | 40.90228 | 29.32423 | 321 ft | 11 kts | 63° |
| 2026-04-28 22:44 | 40.90264 | 29.32517 | 321 ft | 11 kts | 63° |
| 2026-04-28 22:45 | 40.90316 | 29.32579 | 321 ft | 10 kts | 358° |
| 2026-04-28 22:45 | 40.90383 | 29.32545 | 321 ft | 10 kts | 333° |
| 2026-04-28 22:45 | 40.90444 | 29.32504 | 321 ft | 10 kts | 335° |
| 2026-04-28 22:45 | 40.90517 | 29.32461 | 321 ft | 12 kts | 336° |
| 2026-04-28 22:46 | 40.90586 | 29.32408 | 321 ft | 11 kts | 308° |
| 2026-04-28 22:46 | 40.90635 | 29.32331 | 321 ft | 10 kts | 327° |
| 2026-04-28 22:46 | 40.90700 | 29.32283 | 321 ft | 10 kts | 328° |
| 2026-04-28 22:46 | 40.90729 | 29.32205 | 321 ft | 9 kts | 258° |
| 2026-04-28 22:47 | 40.90735 | 29.32132 | 321 ft | 8 kts | 317° |
| 2026-04-28 22:47 | 40.90788 | 29.32091 | 321 ft | 9 kts | 334° |
| 2026-04-28 22:47 | 40.90839 | 29.32038 | 321 ft | 9 kts | 300° |
| 2026-04-28 22:47 | 40.90879 | 29.31974 | 321 ft | 8 kts | 328° |
| 2026-04-28 22:48 | 40.90903 | 29.31918 | 321 ft | 4 kts | 257° |
| 2026-04-28 22:48 | 40.90893 | 29.31890 | 321 ft | 0 kts | 242° |
| 2026-04-28 22:48 | 40.90893 | 29.31889 | 321 ft | 0 kts | 242° |